Profiler II — CZ2496 — position and weather

sailwx.info

Track history (hours):
 
Tides and Currents Weather Stations Pressure Air Temp Water Temp Dewpoint Dewpoint Depression Visibility Wind Speed Wind Dir Waves Ship Positions

Profiler II

Last reported at 2015-Jun-30 22:16 UTC. Time now 2015-Jul-04 15:15 UTC.
Position N 49°12' W 122°55'.

Type: Other ship. MMSI: 316002054.

Date/timePositionNaut miles runAvg speedWind from/ knotsBaromVisibWave heightAir tempDewpointWater temp
2015-Jun-30 22:16N 49°12' W 122°55'913.1
2015-Jun-30 21:34N 49°07' W 123°07'3 2.9
2015-Jun-30 20:34N 49°07' W 123°11'0 0.5
2015-Jun-30 19:33N 49°07' W 123°12'0 0.2
2015-Jun-30 18:33N 49°08' W 123°12'0 0.1
2015-Jun-30 17:33N 49°07' W 123°12'0 0.4
2015-Jun-30 16:34N 49°07' W 123°12'2 2.1
2015-Jun-30 15:34N 49°07' W 123°09'10 0.5
2015-Jun-29 17:33N 49°12' W 122°55'0 0.0
2015-Jun-29 16:33N 49°12' W 122°55'  
2015-Jun-25 15:27N 49°12' W 122°55'0 0.0
2015-Jun-24 17:33N 49°12' W 122°55'0 0.0
2015-Jun-24 15:33N 49°12' W 122°55'  
Track history (hours):
 
Tides and Currents Weather Stations Pressure Air Temp Water Temp Dewpoint Dewpoint Depression Visibility Wind Speed Wind Dir Waves Ship Positions

Profiler II

Last reported at 2015-Jun-30 22:16 UTC. Time now 2015-Jul-04 15:15 UTC.
Position N 49°12' W 122°55'.

Type: Other ship. MMSI: 316002054.

Date/timePositionNaut miles runAvg speedWind from/ knotsBaromVisibWave heightAir tempDewpointWater temp
2015-Jun-30 22:16N 49°12' W 122°55'913.1
2015-Jun-30 21:34N 49°07' W 123°07'3 2.9
2015-Jun-30 20:34N 49°07' W 123°11'0 0.5
2015-Jun-30 19:33N 49°07' W 123°12'0 0.2
2015-Jun-30 18:33N 49°08' W 123°12'0 0.1
2015-Jun-30 17:33N 49°07' W 123°12'0 0.4
2015-Jun-30 16:34N 49°07' W 123°12'2 2.1
2015-Jun-30 15:34N 49°07' W 123°09'10 0.5
2015-Jun-29 17:33N 49°12' W 122°55'0 0.0
2015-Jun-29 16:33N 49°12' W 122°55'  
2015-Jun-25 15:27N 49°12' W 122°55'0 0.0
2015-Jun-24 17:33N 49°12' W 122°55'0 0.0
2015-Jun-24 15:33N 49°12' W 122°55'  

Dump ship's entire track history